createdAt,value
2022-07-25T00:01:12.728Z,7.20
2022-07-25T00:03:42.412Z,6.13
2022-07-25T00:06:13.432Z,6.40
2022-07-25T00:08:45.098Z,6.70
2022-07-25T00:11:12.462Z,6.55
2022-07-25T00:13:39.743Z,7.40
2022-07-25T00:16:07.291Z,6.13
2022-07-25T00:18:35.866Z,6.30
2022-07-25T00:21:03.724Z,6.32
2022-07-25T00:23:31.069Z,6.95
2022-07-25T00:25:58.970Z,6.72
2022-07-25T00:28:26.243Z,6.90
2022-07-25T00:30:53.831Z,6.03
2022-07-25T00:33:23.921Z,6.32
2022-07-25T00:35:51.342Z,6.72
2022-07-25T00:38:18.859Z,7.78
2022-07-25T00:40:46.276Z,6.57
2022-07-25T00:43:21.702Z,6.85
2022-07-25T00:45:49.094Z,6.43
2022-07-25T00:48:16.598Z,5.90
2022-07-25T00:50:44.289Z,6.70
2022-07-25T00:53:11.632Z,6.18
2022-07-25T00:55:42.401Z,6.60
2022-07-25T00:58:14.775Z,6.35
2022-07-25T01:00:42.302Z,7.00
2022-07-25T01:03:09.764Z,6.97
2022-07-25T01:05:42.113Z,6.40
2022-07-25T01:08:09.991Z,6.70
2022-07-25T01:10:38.157Z,6.28
2022-07-25T01:13:05.575Z,7.28
2022-07-25T01:15:33.090Z,6.60
2022-07-25T01:18:00.519Z,6.63
2022-07-25T01:20:30.060Z,7.28
2022-07-25T01:22:58.470Z,6.65
2022-07-25T01:25:27.172Z,6.53
2022-07-25T01:27:56.141Z,6.55
2022-07-25T01:30:25.169Z,6.47
2022-07-25T01:32:53.278Z,7.00
2022-07-25T01:35:20.984Z,6.57
2022-07-25T01:37:48.370Z,6.30
2022-07-25T01:40:15.763Z,6.80
2022-07-25T01:42:43.954Z,6.40
2022-07-25T01:45:12.206Z,6.55
2022-07-25T01:47:40.157Z,6.10
2022-07-25T01:50:10.852Z,5.88
2022-07-25T01:52:39.534Z,6.68
2022-07-25T01:55:10.223Z,6.78
2022-07-25T01:57:39.603Z,6.45
2022-07-25T02:00:10.886Z,6.85
2022-07-25T02:02:38.164Z,6.28
2022-07-25T02:05:06.232Z,7.05
2022-07-25T02:07:33.890Z,6.93
2022-07-25T02:10:01.356Z,7.30
2022-07-25T02:12:28.852Z,6.70
2022-07-25T02:14:56.194Z,6.53
2022-07-25T02:17:23.814Z,6.20
2022-07-25T02:19:51.427Z,6.05
2022-07-25T02:22:19.846Z,6.70
2022-07-25T02:24:47.216Z,6.13
2022-07-25T02:27:14.528Z,6.43
2022-07-25T02:29:41.825Z,5.68
2022-07-25T02:32:09.229Z,6.82
2022-07-25T02:34:36.583Z,6.32
2022-07-25T02:37:03.901Z,7.07
2022-07-25T02:39:31.228Z,6.32
2022-07-25T02:41:58.495Z,7.03
2022-07-25T02:44:25.860Z,6.28
2022-07-25T02:46:53.188Z,6.05
2022-07-25T02:49:20.827Z,7.38
2022-07-25T02:51:48.152Z,6.30
2022-07-25T02:54:16.088Z,7.05
2022-07-25T02:56:43.661Z,6.75
2022-07-25T02:59:10.999Z,7.13
2022-07-25T03:01:38.425Z,6.97
2022-07-25T03:04:06.036Z,7.82
2022-07-25T03:06:33.555Z,7.15
2022-07-25T03:09:00.853Z,7.28
2022-07-25T03:11:30.592Z,6.32
2022-07-25T03:13:58.432Z,6.57
2022-07-25T03:16:26.443Z,6.90
2022-07-25T03:18:54.584Z,6.60
2022-07-25T03:21:21.848Z,6.75
2022-07-25T03:23:52.421Z,6.47
2022-07-25T03:26:21.225Z,6.53
2022-07-25T03:28:48.606Z,6.47
2022-07-25T03:31:16.349Z,6.72
2022-07-25T03:33:43.689Z,9.48
2022-07-25T03:36:11.676Z,8.90
2022-07-25T03:38:39.467Z,6.93
2022-07-25T03:41:06.890Z,6.93
2022-07-25T03:43:35.335Z,6.85
2022-07-25T03:46:02.877Z,6.60
2022-07-25T03:48:30.780Z,7.75
2022-07-25T03:50:59.478Z,7.40
2022-07-25T03:53:28.586Z,7.43
2022-07-25T03:55:56.053Z,6.78
2022-07-25T03:58:23.344Z,6.65
2022-07-25T04:00:54.388Z,7.18
2022-07-25T04:03:21.816Z,6.75
2022-07-25T04:05:49.351Z,7.72
2022-07-25T04:08:16.632Z,7.03
2022-07-25T04:10:44.019Z,6.82
2022-07-25T04:13:11.734Z,7.35
2022-07-25T04:15:39.068Z,8.18
2022-07-25T04:18:07.247Z,7.03
2022-07-25T04:20:37.559Z,7.32
2022-07-25T04:23:05.391Z,9.68
2022-07-25T04:25:32.668Z,7.82
2022-07-25T04:27:59.977Z,8.30
2022-07-25T04:30:27.259Z,7.78
2022-07-25T04:32:54.600Z,7.82
2022-07-25T04:35:21.998Z,9.07
2022-07-25T04:37:52.192Z,7.82
2022-07-25T04:40:22.280Z,7.40
2022-07-25T04:42:49.589Z,8.07
2022-07-25T04:45:17.584Z,8.30
2022-07-25T04:47:45.267Z,7.82
2022-07-25T04:50:13.097Z,16.92
2022-07-25T04:52:40.413Z,10.85
2022-07-25T04:55:08.515Z,8.57
2022-07-25T04:57:36.040Z,8.23
2022-07-25T05:00:08.095Z,8.52
2022-07-25T05:02:36.043Z,8.13
2022-07-25T05:05:04.350Z,9.73
2022-07-25T05:07:31.846Z,8.45
2022-07-25T05:09:59.150Z,7.78
2022-07-25T05:12:26.516Z,7.97
2022-07-25T05:14:55.039Z,8.45
2022-07-25T05:17:22.357Z,8.68
2022-07-25T05:19:49.709Z,8.25
2022-07-25T05:22:17.066Z,8.60
2022-07-25T05:24:44.413Z,9.05
2022-07-25T05:27:11.750Z,7.75
2022-07-25T05:29:39.150Z,8.10
2022-07-25T05:32:06.572Z,8.45
2022-07-25T05:34:33.885Z,8.40
2022-07-25T05:37:01.333Z,8.02
2022-07-25T05:39:28.631Z,8.25
2022-07-25T05:41:55.936Z,8.45
2022-07-25T05:44:23.415Z,9.88
2022-07-25T05:46:50.785Z,8.32
2022-07-25T05:49:18.254Z,8.27
2022-07-25T05:51:45.699Z,8.15
2022-07-25T05:54:13.004Z,8.70
2022-07-25T05:56:40.553Z,8.52
2022-07-25T05:59:07.906Z,8.60
2022-07-25T06:01:35.299Z,8.48
2022-07-25T06:04:02.826Z,8.52
2022-07-25T06:06:32.699Z,8.07
2022-07-25T06:09:00.128Z,10.05
2022-07-25T06:11:29.206Z,9.23
2022-07-25T06:13:58.236Z,7.82
2022-07-25T06:16:25.715Z,7.60
2022-07-25T06:18:53.148Z,10.30
2022-07-25T06:21:20.486Z,7.88
2022-07-25T06:23:47.822Z,10.25
2022-07-25T06:26:15.215Z,7.97
2022-07-25T06:28:42.572Z,7.93
2022-07-25T06:31:09.976Z,7.18
2022-07-25T06:33:37.358Z,7.78
2022-07-25T06:36:06.475Z,7.70
2022-07-25T06:38:33.968Z,7.93
2022-07-25T06:41:01.307Z,7.25
2022-07-25T06:43:28.652Z,7.07
2022-07-25T06:45:55.985Z,8.68
2022-07-25T06:48:24.339Z,7.22
2022-07-25T06:50:52.547Z,8.02
2022-07-25T06:53:19.881Z,8.15
2022-07-25T06:55:47.216Z,7.07
2022-07-25T06:58:14.591Z,8.13
2022-07-25T07:00:41.978Z,8.73
2022-07-25T07:03:09.310Z,8.05
2022-07-25T07:05:37.204Z,7.78
2022-07-25T07:08:06.080Z,8.10
2022-07-25T07:10:33.457Z,7.68
2022-07-25T07:13:12.571Z,7.97
2022-07-25T07:15:43.928Z,7.88
2022-07-25T07:18:11.317Z,8.35
2022-07-25T07:20:38.683Z,7.43
2022-07-25T07:23:05.984Z,8.25
2022-07-25T07:25:33.983Z,8.90
2022-07-25T07:28:01.635Z,7.93
2022-07-25T07:30:58.621Z,8.20
2022-07-25T07:33:16.557Z,7.28
2022-07-25T07:35:45.167Z,8.98
2022-07-25T07:38:12.505Z,9.07
2022-07-25T07:40:39.799Z,9.60
2022-07-25T07:43:07.236Z,7.10
2022-07-25T07:45:35.795Z,7.32
2022-07-25T07:48:03.186Z,7.50
2022-07-25T07:50:33.178Z,6.90
2022-07-25T07:53:00.970Z,7.47
2022-07-25T07:55:45.103Z,7.35
2022-07-25T07:58:17.497Z,6.93
2022-07-25T08:00:46.987Z,7.05
2022-07-25T08:03:19.507Z,6.72
2022-07-25T08:05:48.900Z,7.35
2022-07-25T08:08:16.796Z,6.95
2022-07-25T08:10:48.829Z,8.32
2022-07-25T08:13:18.124Z,7.25
2022-07-25T08:15:48.016Z,6.90
2022-07-25T08:18:17.090Z,6.78
2022-07-25T08:20:49.128Z,8.43
2022-07-25T08:23:17.215Z,7.63
2022-07-25T08:25:48.522Z,7.28
2022-07-25T08:28:15.888Z,7.47
2022-07-25T08:30:43.945Z,6.60
2022-07-25T08:33:16.325Z,8.00
2022-07-25T08:35:53.634Z,6.95
2022-07-25T08:38:22.915Z,7.05
2022-07-25T08:40:50.788Z,7.55
2022-07-25T08:43:21.670Z,8.73
2022-07-25T08:48:34.038Z,8.35
2022-07-25T08:51:03.362Z,6.85
2022-07-25T08:53:34.015Z,7.00
2022-07-25T08:56:09.962Z,7.82
2022-07-25T08:58:44.300Z,7.35
2022-07-25T09:01:13.257Z,7.43
2022-07-25T09:03:42.888Z,6.78
2022-07-25T09:06:21.509Z,8.45
2022-07-25T09:08:54.006Z,7.38
2022-07-25T09:11:35.163Z,6.75
2022-07-25T09:14:08.989Z,7.78
2022-07-25T09:16:44.855Z,7.18
2022-07-25T09:19:17.474Z,7.82
2022-07-25T09:21:57.446Z,7.53
2022-07-25T09:24:25.579Z,7.72
2022-07-25T09:26:55.120Z,7.72
2022-07-25T09:29:33.441Z,7.43
2022-07-25T09:32:02.399Z,7.70
2022-07-25T09:34:33.925Z,10.60
2022-07-25T09:37:03.712Z,7.20
2022-07-25T09:39:45.499Z,8.30
2022-07-25T09:42:22.915Z,7.85
2022-07-25T09:45:09.968Z,9.35
2022-07-25T09:47:51.354Z,7.32
2022-07-25T09:50:23.013Z,10.18
2022-07-25T09:52:52.861Z,7.50
2022-07-25T09:55:21.598Z,7.43
2022-07-25T09:57:49.755Z,8.25
2022-07-25T10:00:23.386Z,7.43
2022-07-25T10:03:15.434Z,6.90
2022-07-25T10:06:04.744Z,7.38
2022-07-25T10:08:39.696Z,6.68
2022-07-25T10:11:27.781Z,7.32
2022-07-25T10:13:56.456Z,7.43
2022-07-25T10:16:25.872Z,7.50
2022-07-25T10:18:55.767Z,6.22
2022-07-25T10:21:27.680Z,5.70
2022-07-25T10:24:09.868Z,6.95
2022-07-25T10:26:39.810Z,5.95
2022-07-25T10:29:11.614Z,6.28
2022-07-25T10:31:49.303Z,6.32
2022-07-25T10:34:30.251Z,6.05
2022-07-25T10:36:57.640Z,5.93
2022-07-25T10:39:25.031Z,6.13
2022-07-25T10:41:54.749Z,6.00
2022-07-25T10:44:22.298Z,5.88
2022-07-25T10:46:50.335Z,5.88
2022-07-25T10:49:20.001Z,5.80
2022-07-25T10:51:59.459Z,6.03
2022-07-25T10:54:34.069Z,6.05
2022-07-25T10:57:01.598Z,7.18
2022-07-25T10:59:38.932Z,5.88
2022-07-25T11:02:09.569Z,7.05
2022-07-25T11:04:37.426Z,5.97
2022-07-25T11:07:17.672Z,6.65
2022-07-25T11:09:45.169Z,6.10
2022-07-25T11:12:18.761Z,5.93
2022-07-25T11:14:47.477Z,5.78
2022-07-25T11:17:24.829Z,6.28
2022-07-25T11:20:03.147Z,6.18
2022-07-25T11:22:31.743Z,6.38
2022-07-25T11:25:00.424Z,7.85
2022-07-25T11:27:33.024Z,7.18
2022-07-25T11:30:19.014Z,6.95
2022-07-25T11:32:54.300Z,7.75
2022-07-25T11:35:25.243Z,6.75
2022-07-25T11:37:53.492Z,6.82
2022-07-25T11:40:22.413Z,5.78
2022-07-25T11:42:56.286Z,6.82
2022-07-25T11:45:36.517Z,5.18
2022-07-25T11:48:13.466Z,5.97
2022-07-25T11:50:44.683Z,7.18
2022-07-25T11:53:14.761Z,5.28
2022-07-25T11:55:43.371Z,5.47
2022-07-25T11:58:12.924Z,5.63
2022-07-25T12:00:46.314Z,5.38
2022-07-25T12:03:19.877Z,7.78
2022-07-25T12:05:49.693Z,6.15
2022-07-25T12:08:19.320Z,5.70
2022-07-25T12:10:49.092Z,6.15
2022-07-25T12:13:28.052Z,5.45
2022-07-25T12:15:59.922Z,5.97
2022-07-25T12:18:27.925Z,5.43
2022-07-25T12:20:55.530Z,5.68
2022-07-25T12:23:22.884Z,5.93
2022-07-25T12:25:50.473Z,5.55
2022-07-25T12:28:18.135Z,5.88
2022-07-25T12:30:46.710Z,5.68
2022-07-25T12:33:14.923Z,5.10
2022-07-25T12:35:43.630Z,6.05
2022-07-25T12:38:11.263Z,6.60
2022-07-25T12:40:39.100Z,5.63
2022-07-25T12:43:06.819Z,5.28
2022-07-25T12:45:34.326Z,5.18
2022-07-25T12:48:01.653Z,5.78
2022-07-25T12:50:29.044Z,5.65
2022-07-25T12:52:56.403Z,6.43
2022-07-25T12:55:23.984Z,6.95
2022-07-25T12:57:51.329Z,6.95
2022-07-25T13:00:21.329Z,7.18
2022-07-25T13:02:51.220Z,7.22
2022-07-25T13:05:19.640Z,6.90
2022-07-25T13:07:48.891Z,6.28
2022-07-25T13:10:16.931Z,6.72
2022-07-25T13:12:44.352Z,6.47
2022-07-25T13:15:13.867Z,6.22
2022-07-25T13:17:41.906Z,6.80
2022-07-25T13:20:12.815Z,7.30
2022-07-25T13:22:43.095Z,7.00
2022-07-25T13:25:10.403Z,8.02
2022-07-25T13:27:40.785Z,7.13
2022-07-25T13:30:08.833Z,8.38
2022-07-25T13:32:38.897Z,6.97
2022-07-25T13:35:06.782Z,7.20
2022-07-25T13:37:34.770Z,7.10
2022-07-25T13:40:04.311Z,7.07
2022-07-25T13:42:34.423Z,7.15
2022-07-25T13:45:01.815Z,6.88
2022-07-25T13:47:32.187Z,6.40
2022-07-25T13:49:59.502Z,6.63
2022-07-25T13:52:26.853Z,7.35
2022-07-25T13:54:54.173Z,7.20
2022-07-25T13:57:21.630Z,6.40
2022-07-25T13:59:49.068Z,6.45
2022-07-25T14:02:16.517Z,5.63
2022-07-25T14:04:44.014Z,6.10
2022-07-25T14:07:11.281Z,9.75
2022-07-25T14:09:38.806Z,11.20
2022-07-25T14:12:09.111Z,9.40
2022-07-25T14:14:38.741Z,6.30
2022-07-25T14:17:09.178Z,6.35
2022-07-25T14:19:36.712Z,7.00
2022-07-25T14:22:04.299Z,6.22
2022-07-25T14:24:31.637Z,9.57
2022-07-25T14:26:59.054Z,6.35
2022-07-25T14:29:30.445Z,5.68
2022-07-25T14:31:58.172Z,6.65
2022-07-25T14:34:25.566Z,6.43
2022-07-25T14:36:55.442Z,6.32
2022-07-25T14:39:23.170Z,6.35
2022-07-25T14:41:50.466Z,6.70
2022-07-25T14:44:19.467Z,6.15
2022-07-25T14:46:48.980Z,6.35
2022-07-25T14:49:16.867Z,6.60
2022-07-25T14:51:45.641Z,6.80
2022-07-25T14:54:13.100Z,7.03
2022-07-25T14:56:40.441Z,7.18
2022-07-25T14:59:11.097Z,6.82
2022-07-25T15:01:39.284Z,7.10
2022-07-25T15:04:07.254Z,7.50
2022-07-25T15:06:35.579Z,6.55
2022-07-25T15:09:03.198Z,6.50
2022-07-25T15:11:30.682Z,6.00
2022-07-25T15:13:58.211Z,6.25
2022-07-25T15:16:25.749Z,6.35
2022-07-25T15:19:15.056Z,6.78
2022-07-25T15:21:40.596Z,5.78
2022-07-25T15:24:08.191Z,6.00
2022-07-25T15:26:36.699Z,6.35
2022-07-25T15:29:08.282Z,6.00
2022-07-25T15:31:36.793Z,6.82
2022-07-25T15:34:04.482Z,6.55
2022-07-25T15:36:34.709Z,9.63
2022-07-25T15:39:02.229Z,7.35
2022-07-25T15:41:32.006Z,7.25
2022-07-25T15:43:59.789Z,8.45
2022-07-25T15:46:28.858Z,6.97
2022-07-25T15:48:57.856Z,7.07
2022-07-25T15:51:25.535Z,7.32
2022-07-25T15:53:52.894Z,7.70
2022-07-25T15:56:20.564Z,7.18
2022-07-25T15:58:49.159Z,7.20
2022-07-25T16:01:16.811Z,6.13
2022-07-25T16:03:44.291Z,8.45
2022-07-25T16:06:15.550Z,6.85
2022-07-25T16:08:46.499Z,18.50
2022-07-25T16:11:13.978Z,5.50
2022-07-25T16:13:41.893Z,5.40
2022-07-25T16:16:10.087Z,7.40
2022-07-25T16:18:37.824Z,5.72
2022-07-25T16:21:05.708Z,5.35
2022-07-25T16:23:38.387Z,5.65
2022-07-25T16:26:08.552Z,5.53
2022-07-25T16:28:39.339Z,5.57
2022-07-25T16:31:07.267Z,7.22
2022-07-25T16:33:34.697Z,6.03
2022-07-25T16:36:02.287Z,6.45
2022-07-25T16:38:30.016Z,9.23
2022-07-25T16:40:57.329Z,6.43
2022-07-25T16:43:24.787Z,5.60
2022-07-25T16:45:52.066Z,3.70
2022-07-25T16:48:19.441Z,3.15
2022-07-25T16:50:47.907Z,3.55
2022-07-25T16:53:15.296Z,3.55
2022-07-25T16:55:42.665Z,3.10
2022-07-25T16:58:09.960Z,3.20
2022-07-25T17:00:38.794Z,2.85
2022-07-25T17:03:06.173Z,2.83
2022-07-25T17:05:36.604Z,3.47
2022-07-25T17:08:06.735Z,7.25
2022-07-25T17:10:34.076Z,5.53
2022-07-25T17:13:01.408Z,5.43
2022-07-25T17:15:28.986Z,6.60
2022-07-25T17:17:56.290Z,3.65
2022-07-25T17:20:23.791Z,2.72
2022-07-25T17:22:51.289Z,2.20
2022-07-25T17:25:20.757Z,2.03
2022-07-25T17:27:50.847Z,5.80
2022-07-25T17:30:18.208Z,5.03
2022-07-25T17:32:45.594Z,3.42
2022-07-25T17:35:12.851Z,5.10
2022-07-25T17:37:41.287Z,4.45
2022-07-25T17:40:09.570Z,6.70
2022-07-25T17:42:44.731Z,4.75
2022-07-25T17:45:13.276Z,5.10
2022-07-25T17:47:41.659Z,4.72
2022-07-25T17:50:09.778Z,4.28
2022-07-25T17:52:37.580Z,4.82
2022-07-25T17:55:05.601Z,3.83
2022-07-25T17:57:34.438Z,4.57
2022-07-25T18:00:02.315Z,5.15
2022-07-25T18:02:30.583Z,2.88
2022-07-25T18:05:04.820Z,2.13
2022-07-25T18:07:32.166Z,2.67
2022-07-25T18:10:02.682Z,4.18
2022-07-25T18:12:30.080Z,4.72
2022-07-25T18:14:57.379Z,2.88
2022-07-25T18:17:24.742Z,4.75
2022-07-25T18:19:52.896Z,3.20
2022-07-25T18:22:20.340Z,3.42
2022-07-25T18:24:47.598Z,5.10
2022-07-25T18:27:15.006Z,2.83
2022-07-25T18:29:42.652Z,3.10
2022-07-25T18:32:10.114Z,3.40
2022-07-25T18:34:37.433Z,4.32
2022-07-25T18:37:05.514Z,2.60
2022-07-25T18:39:32.842Z,3.20
2022-07-25T18:42:00.172Z,3.85
2022-07-25T18:44:27.441Z,4.05
2022-07-25T18:46:54.814Z,5.50
2022-07-25T18:49:27.073Z,2.72
2022-07-25T18:51:54.643Z,2.58
2022-07-25T18:54:22.029Z,6.22
2022-07-25T18:56:52.166Z,3.63
2022-07-25T18:59:19.529Z,1.20
2022-07-25T19:01:46.993Z,1.30
2022-07-25T19:04:15.281Z,2.75
2022-07-25T19:06:45.547Z,2.80
2022-07-25T19:09:12.923Z,2.13
2022-07-25T19:11:42.378Z,1.63
2022-07-25T19:14:10.371Z,2.35
2022-07-25T19:16:38.269Z,3.90
2022-07-25T19:19:10.032Z,3.03
2022-07-25T19:21:37.702Z,3.03
2022-07-25T19:24:05.850Z,3.72
2022-07-25T19:26:34.070Z,1.60
2022-07-25T19:29:01.473Z,1.98
2022-07-25T19:31:28.898Z,2.28
2022-07-25T19:33:56.238Z,3.75
2022-07-25T19:36:23.536Z,1.55
2022-07-25T19:38:50.958Z,2.83
2022-07-25T19:41:18.504Z,2.28
2022-07-25T19:43:45.883Z,2.00
2022-07-25T19:46:13.495Z,1.85
2022-07-25T19:48:40.947Z,2.60
2022-07-25T19:51:09.809Z,5.10
2022-07-25T19:53:37.422Z,3.08
2022-07-25T19:56:06.611Z,4.25
2022-07-25T19:58:38.918Z,3.58
2022-07-25T20:01:07.860Z,3.15
2022-07-25T20:03:35.725Z,1.85
2022-07-25T20:06:07.863Z,2.30
2022-07-25T20:08:37.171Z,2.17
2022-07-25T20:11:04.745Z,3.22
2022-07-25T20:13:32.115Z,2.85
2022-07-25T20:15:59.787Z,3.50
2022-07-25T20:18:27.097Z,2.22
2022-07-25T20:20:54.452Z,1.92
2022-07-25T20:23:23.067Z,2.90
2022-07-25T20:25:50.632Z,3.05
2022-07-25T20:28:18.733Z,5.03
2022-07-25T20:30:46.276Z,2.72
2022-07-25T20:33:13.721Z,3.20
2022-07-25T20:35:41.087Z,2.67
2022-07-25T20:38:10.752Z,5.28
2022-07-25T20:40:48.012Z,2.65
2022-07-25T20:43:17.286Z,2.17
2022-07-25T20:45:45.194Z,3.70
2022-07-25T20:48:15.669Z,2.03
2022-07-25T20:50:44.446Z,1.70
2022-07-25T20:53:12.948Z,1.70
2022-07-25T20:55:40.298Z,1.60
2022-07-25T20:58:07.712Z,2.80
2022-07-25T21:00:35.105Z,3.92
2022-07-25T21:03:02.772Z,2.45
2022-07-25T21:05:30.486Z,2.33
2022-07-25T21:07:57.975Z,3.78
2022-07-25T21:10:25.915Z,4.35
2022-07-25T21:12:55.819Z,2.97
2022-07-25T21:15:24.101Z,4.18
2022-07-25T21:17:51.492Z,2.00
2022-07-25T21:20:18.871Z,1.95
2022-07-25T21:22:46.174Z,3.22
2022-07-25T21:25:13.607Z,2.20
2022-07-25T21:27:41.224Z,4.88
2022-07-25T21:30:10.894Z,1.73
2022-07-25T21:32:39.370Z,2.95
2022-07-25T21:35:07.078Z,3.47
2022-07-25T21:37:34.405Z,3.72
2022-07-25T21:40:02.253Z,2.20
2022-07-25T21:42:29.896Z,2.35
2022-07-25T21:44:57.326Z,2.38
2022-07-25T21:47:24.653Z,3.88
2022-07-25T21:50:10.712Z,1.80
2022-07-25T21:52:43.685Z,2.70
2022-07-25T21:55:11.059Z,2.22
2022-07-25T21:57:38.468Z,3.20
2022-07-25T22:00:09.312Z,2.58
2022-07-25T22:02:36.695Z,2.88
2022-07-25T22:05:04.537Z,1.70
2022-07-25T22:07:31.836Z,2.22
2022-07-25T22:09:59.285Z,1.83
2022-07-25T22:12:26.846Z,3.53
2022-07-25T22:14:54.201Z,2.40
2022-07-25T22:17:21.512Z,3.47
2022-07-25T22:19:48.880Z,2.78
2022-07-25T22:22:19.082Z,1.67
2022-07-25T22:24:49.089Z,3.17
2022-07-25T22:27:19.382Z,1.92
2022-07-25T22:29:46.675Z,4.70
2022-07-25T22:32:14.002Z,2.67
2022-07-25T22:34:41.389Z,2.47
2022-07-25T22:37:08.718Z,1.70
2022-07-25T22:39:36.010Z,2.42
2022-07-25T22:42:03.303Z,3.47
2022-07-25T22:44:30.805Z,4.80
2022-07-25T22:46:58.113Z,3.92
2022-07-25T22:49:26.140Z,2.03
2022-07-25T22:51:56.710Z,5.20
2022-07-25T22:54:24.849Z,3.90
2022-07-25T22:56:52.212Z,5.13
2022-07-25T22:59:19.833Z,3.22
2022-07-25T23:01:47.219Z,2.72
2022-07-25T23:04:14.683Z,2.42
2022-07-25T23:06:44.522Z,2.33
2022-07-25T23:09:13.494Z,1.60
2022-07-25T23:11:40.830Z,2.08
2022-07-25T23:14:08.373Z,2.65
2022-07-25T23:16:35.841Z,2.75
2022-07-25T23:19:03.272Z,3.70
2022-07-25T23:21:30.820Z,1.75
2022-07-25T23:23:59.931Z,1.77
2022-07-25T23:26:28.245Z,2.63
2022-07-25T23:28:56.285Z,2.63
2022-07-25T23:31:23.699Z,2.42
2022-07-25T23:33:51.143Z,5.75
2022-07-25T23:36:18.475Z,3.35
2022-07-25T23:38:47.711Z,3.85
2022-07-25T23:41:15.024Z,2.80
2022-07-25T23:43:56.896Z,3.40
2022-07-25T23:46:27.981Z,2.60
2022-07-25T23:48:58.450Z,2.22
2022-07-25T23:51:26.547Z,2.90
2022-07-25T23:53:53.908Z,2.20
2022-07-25T23:56:21.499Z,2.78
2022-07-25T23:58:50.144Z,4.22
